Time;durP1;ratioP1;P1;durP2;ratioP2;P2;SDS_P1;SDS_P2;PMS_P1;PMS_P2;Temp;Humidity;BMP_temperature;BMP_pressure;BME280_temperature;BME280_humidity;BME280_pressure;Samples;Min_cycle;Max_cycle;Signal;HPM_P1;HPM_P2
2021/09/25 00:01:21;;;;;;;16.52;11.95;;;13.60;26.00;;;;;;5054494;28;20438;-70
2021/09/25 00:03:54;;;;;;;16.48;10.75;;;13.60;26.70;;;;;;5058932;28;20159;-70
2021/09/25 00:06:25;;;;;;;20.17;10.82;;;13.60;27.00;;;;;;5028046;28;20723;-70
2021/09/25 00:08:54;;;;;;;16.05;11.00;;;13.60;27.30;;;;;;5058058;28;20064;-69
2021/09/25 00:11:23;;;;;;;13.82;10.65;;;13.50;27.70;;;;;;5057368;28;20122;-69
2021/09/25 00:13:51;;;;;;;17.17;12.00;;;13.50;27.90;;;;;;5069948;28;20127;-70
2021/09/25 00:16:25;;;;;;;17.33;11.65;;;13.50;28.10;;;;;;5059594;28;20148;-70
2021/09/25 00:18:59;;;;;;;19.83;11.65;;;13.40;28.70;;;;;;5055281;28;20049;-70
2021/09/25 00:21:29;;;;;;;15.57;11.32;;;13.30;29.30;;;;;;5061964;28;20044;-70
2021/09/25 00:24:02;;;;;;;16.67;11.70;;;13.30;29.80;;;;;;5060879;28;20040;-70
2021/09/25 00:26:35;;;;;;;15.95;11.43;;;13.30;29.90;;;;;;5059805;28;20579;-69
2021/09/25 00:29:08;;;;;;;15.45;11.15;;;13.30;30.00;;;;;;5059878;28;20049;-69
2021/09/25 00:31:36;;;;;;;17.10;11.73;;;13.20;31.00;;;;;;5057690;28;20056;-70
2021/09/25 00:34:06;;;;;;;16.98;11.65;;;13.20;31.20;;;;;;5061959;28;20053;-70
2021/09/25 00:36:35;;;;;;;18.77;12.30;;;13.20;31.30;;;;;;5061318;28;20063;-69
2021/09/25 00:39:04;;;;;;;16.75;12.35;;;13.20;31.30;;;;;;5057534;28;20163;-70
2021/09/25 00:41:33;;;;;;;20.92;12.05;;;13.20;31.40;;;;;;5058734;28;20128;-70
2021/09/25 00:44:04;;;;;;;17.98;12.90;;;13.10;32.90;;;;;;5063517;28;20085;-69
2021/09/25 00:46:36;;;;;;;16.45;12.45;;;13.20;32.30;;;;;;5055780;28;20132;-70
2021/09/25 00:49:06;;;;;;;17.75;12.52;;;13.10;31.70;;;;;;5060760;28;20094;-70
2021/09/25 00:51:37;;;;;;;17.38;12.80;;;13.10;32.10;;;;;;5063988;28;20050;-70
2021/09/25 00:54:06;;;;;;;17.65;12.43;;;13.10;32.20;;;;;;5057252;28;20588;-70
2021/09/25 00:56:34;;;;;;;18.40;13.23;;;13.00;32.50;;;;;;5057279;28;20302;-69
2021/09/25 00:59:02;;;;;;;18.88;12.73;;;13.00;33.20;;;;;;5061561;28;20143;-70
2021/09/25 01:01:31;;;;;;;16.95;12.68;;;13.00;33.60;;;;;;5055366;28;20041;-70
2021/09/25 01:04:04;;;;;;;15.80;12.27;;;13.00;33.20;;;;;;5051365;28;20093;-70
2021/09/25 01:06:34;;;;;;;18.08;13.27;;;13.00;33.30;;;;;;5059274;28;20036;-69
2021/09/25 01:09:04;;;;;;;19.30;13.27;;;13.00;33.40;;;;;;5059143;28;20674;-70
2021/09/25 01:11:36;;;;;;;19.00;13.05;;;12.90;33.50;;;;;;5051135;28;20065;-70
2021/09/25 01:14:09;;;;;;;17.90;13.75;;;12.90;33.90;;;;;;5054448;28;20049;-69
2021/09/25 01:16:38;;;;;;;17.88;12.45;;;12.90;34.10;;;;;;5058490;28;20064;-70
2021/09/25 01:19:07;;;;;;;22.10;13.90;;;12.90;33.70;;;;;;5021916;28;20063;-70
2021/09/25 01:21:37;;;;;;;18.75;13.18;;;12.90;33.70;;;;;;5058584;28;20262;-70
2021/09/25 01:24:06;;;;;;;17.77;13.18;;;12.90;34.10;;;;;;5057329;28;20049;-69
2021/09/25 01:26:34;;;;;;;18.88;13.02;;;12.90;34.30;;;;;;5057586;28;20561;-69
2021/09/25 01:29:02;;;;;;;18.08;13.27;;;12.80;34.10;;;;;;5057397;28;20076;-70
2021/09/25 01:31:30;;;;;;;17.13;13.00;;;12.80;34.20;;;;;;5056646;28;20053;-70
2021/09/25 01:33:59;;;;;;;19.08;14.18;;;12.80;34.40;;;;;;5053365;28;20044;-70
2021/09/25 01:36:27;;;;;;;21.52;14.07;;;12.80;34.10;;;;;;5060033;28;20102;-69
2021/09/25 01:38:58;;;;;;;20.48;12.98;;;12.80;33.90;;;;;;5060875;28;20075;-70
2021/09/25 01:41:26;;;;;;;18.83;13.32;;;12.80;34.40;;;;;;5026854;28;20114;-70
2021/09/25 01:43:58;;;;;;;22.02;15.15;;;12.70;33.90;;;;;;5051731;28;20136;-69
2021/09/25 01:46:26;;;;;;;17.20;12.88;;;12.70;33.90;;;;;;5058820;28;20093;-69
2021/09/25 01:48:54;;;;;;;15.50;12.95;;;12.60;35.10;;;;;;5051575;28;20055;-69
2021/09/25 01:51:31;;;;;;;19.75;13.20;;;12.60;35.30;;;;;;5056231;28;20099;-70
2021/09/25 01:54:00;;;;;;;19.20;13.68;;;12.60;35.20;;;;;;5060791;28;20101;-70
2021/09/25 01:56:33;;;;;;;18.30;13.73;;;12.50;35.50;;;;;;5042569;28;20041;-70
2021/09/25 01:59:01;;;;;;;21.00;13.52;;;12.50;35.80;;;;;;5052726;28;20049;-69
2021/09/25 02:01:29;;;;;;;20.65;13.68;;;12.40;36.10;;;;;;5061991;28;20056;-69
2021/09/25 02:04:02;;;;;;;18.10;14.13;;;12.40;36.80;;;;;;5060628;28;20578;-70
2021/09/25 02:06:33;;;;;;;20.45;14.27;;;12.40;36.90;;;;;;5056796;28;20158;-69
2021/09/25 02:09:03;;;;;;;19.02;13.55;;;12.40;37.90;;;;;;5060489;28;20071;-69
2021/09/25 02:11:33;;;;;;;17.98;13.68;;;12.40;37.90;;;;;;5040665;28;20119;-69
2021/09/25 02:14:03;;;;;;;21.08;14.10;;;12.40;37.50;;;;;;5057419;28;20082;-70
2021/09/25 02:16:31;;;;;;;21.08;14.02;;;12.30;37.50;;;;;;5058410;28;20148;-70
2021/09/25 02:19:05;;;;;;;20.08;14.57;;;12.30;37.60;;;;;;5026219;28;20044;-70
2021/09/25 02:21:35;;;;;;;20.67;14.00;;;12.30;37.60;;;;;;5050454;28;20041;-70
2021/09/25 02:24:06;;;;;;;18.63;14.73;;;12.30;37.40;;;;;;5047098;28;20052;-69
2021/09/25 02:26:38;;;;;;;25.02;15.25;;;12.30;37.30;;;;;;5042897;28;20040;-69
2021/09/25 02:29:08;;;;;;;21.92;13.77;;;12.30;37.60;;;;;;5018990;28;20051;-70
2021/09/25 02:31:37;;;;;;;19.95;13.85;;;12.30;37.30;;;;;;5045194;28;20072;-70
2021/09/25 02:34:06;;;;;;;21.98;13.57;;;12.30;37.10;;;;;;5064176;28;20045;-70
2021/09/25 02:36:35;;;;;;;18.98;13.10;;;12.30;37.20;;;;;;5055860;28;20040;-67
2021/09/25 02:39:08;;;;;;;19.80;13.50;;;12.30;36.20;;;;;;5062174;28;20055;-70
2021/09/25 02:41:37;;;;;;;18.13;13.75;;;12.30;36.10;;;;;;5047499;28;20048;-70
2021/09/25 02:44:07;;;;;;;17.55;12.68;;;12.30;36.00;;;;;;5039056;28;20088;-70
2021/09/25 02:46:35;;;;;;;16.15;12.48;;;12.30;35.00;;;;;;5060557;28;20051;-70
2021/09/25 02:49:03;;;;;;;18.67;12.98;;;12.30;35.30;;;;;;5044554;28;20056;-70
2021/09/25 02:51:31;;;;;;;20.20;14.13;;;12.20;34.90;;;;;;5053701;28;20159;-68
2021/09/25 02:54:02;;;;;;;21.92;13.10;;;12.20;35.90;;;;;;5060883;28;20043;-70
2021/09/25 02:56:32;;;;;;;20.67;12.85;;;12.20;35.40;;;;;;5064038;28;20075;-70
2021/09/25 02:59:02;;;;;;;17.95;12.05;;;12.10;35.70;;;;;;5061438;28;20037;-70
2021/09/25 03:01:46;;;;;;;18.73;12.95;;;12.10;35.40;;;;;;5040006;28;20037;-69
2021/09/25 03:04:19;;;;;;;17.80;12.18;;;12.10;35.70;;;;;;5063834;28;20102;-70
2021/09/25 03:06:48;;;;;;;17.17;12.18;;;12.00;35.80;;;;;;5062505;28;20527;-70
2021/09/25 03:09:16;;;;;;;18.02;12.35;;;11.90;36.30;;;;;;5057524;28;20045;-71
2021/09/25 03:11:49;;;;;;;19.75;12.32;;;11.90;36.60;;;;;;5065927;28;20068;-71
2021/09/25 03:14:21;;;;;;;16.35;11.93;;;12.00;37.30;;;;;;5058219;28;20044;-70
2021/09/25 03:16:49;;;;;;;16.17;11.90;;;12.00;37.10;;;;;;5060958;28;20479;-70
2021/09/25 03:19:20;;;;;;;17.35;11.88;;;12.00;36.60;;;;;;5060727;28;20052;-70
2021/09/25 03:21:48;;;;;;;18.98;12.00;;;12.00;36.90;;;;;;5062251;28;20082;-71
2021/09/25 03:24:20;;;;;;;15.90;11.35;;;12.00;36.30;;;;;;5059069;28;20059;-71
2021/09/25 03:26:49;;;;;;;13.77;10.93;;;12.00;36.20;;;;;;5066867;28;20086;-71
2021/09/25 03:29:19;;;;;;;16.08;11.20;;;11.90;36.60;;;;;;5056204;28;20049;-71
2021/09/25 03:31:50;;;;;;;16.85;12.10;;;12.00;36.40;;;;;;5052040;28;20079;-70
2021/09/25 03:34:18;;;;;;;15.23;10.80;;;12.00;36.00;;;;;;5064859;28;20049;-71
2021/09/25 03:36:48;;;;;;;15.02;10.88;;;12.00;36.40;;;;;;5066434;28;20041;-70
2021/09/25 03:39:16;;;;;;;16.27;11.25;;;11.90;36.20;;;;;;5052748;28;20076;-69
2021/09/25 03:41:44;;;;;;;16.88;10.82;;;11.90;35.90;;;;;;5057356;28;20057;-69
2021/09/25 03:44:13;;;;;;;16.10;11.35;;;11.90;36.00;;;;;;5064090;28;20571;-70
2021/09/25 03:46:46;;;;;;;16.23;11.60;;;11.90;36.20;;;;;;5059444;28;20067;-70
2021/09/25 03:49:19;;;;;;;16.85;12.43;;;11.80;36.30;;;;;;5057188;28;20059;-71
2021/09/25 03:51:47;;;;;;;15.02;11.25;;;11.90;37.50;;;;;;5044264;28;20045;-70
2021/09/25 03:54:16;;;;;;;15.70;12.27;;;11.90;36.60;;;;;;5061159;28;20168;-70
2021/09/25 03:56:44;;;;;;;15.45;10.95;;;11.80;36.60;;;;;;5059429;28;20535;-70
2021/09/25 03:59:14;;;;;;;15.98;11.23;;;11.80;36.30;;;;;;5065067;28;20056;-70
2021/09/25 04:01:42;;;;;;;14.88;11.70;;;11.70;37.00;;;;;;5057329;28;20067;-70
2021/09/25 04:04:14;;;;;;;14.15;11.13;;;11.70;38.30;;;;;;5057101;28;20040;-70
2021/09/25 04:06:43;;;;;;;17.65;11.32;;;11.70;38.50;;;;;;5063998;28;20499;-70
2021/09/25 04:09:11;;;;;;;16.80;11.85;;;11.70;38.50;;;;;;5058883;28;20052;-71
2021/09/25 04:11:41;;;;;;;23.73;12.18;;;11.70;38.40;;;;;;5056849;28;20049;-70
2021/09/25 04:14:09;;;;;;;16.58;11.35;;;11.60;37.60;;;;;;5062470;28;20049;-70
2021/09/25 04:16:38;;;;;;;17.10;12.15;;;11.60;37.90;;;;;;5062709;28;20138;-71
2021/09/25 04:19:10;;;;;;;15.57;11.45;;;11.60;38.30;;;;;;5061888;28;20048;-70
2021/09/25 04:21:39;;;;;;;16.17;10.90;;;11.50;38.30;;;;;;5036350;28;20041;-70
2021/09/25 04:24:07;;;;;;;16.48;11.32;;;11.50;38.30;;;;;;5063097;28;20048;-70
2021/09/25 04:26:39;;;;;;;15.23;10.52;;;11.50;38.30;;;;;;5059618;28;20054;-70
2021/09/25 04:29:07;;;;;;;15.77;10.55;;;11.50;38.40;;;;;;5060117;28;20058;-71
2021/09/25 04:31:40;;;;;;;14.20;10.70;;;11.50;38.30;;;;;;5064168;28;20373;-70
2021/09/25 04:34:15;;;;;;;16.65;11.00;;;11.40;38.20;;;;;;5057670;28;20495;-70
2021/09/25 04:36:46;;;;;;;13.70;10.63;;;11.50;38.30;;;;;;5045614;28;20115;-71
2021/09/25 04:39:14;;;;;;;14.13;10.23;;;11.40;38.10;;;;;;5042799;28;20407;-71
2021/09/25 04:41:46;;;;;;;15.20;10.60;;;11.40;38.20;;;;;;5036887;28;20492;-71
2021/09/25 04:44:16;;;;;;;19.27;11.05;;;11.40;38.10;;;;;;5058834;28;20044;-71
2021/09/25 04:46:52;;;;;;;15.07;10.32;;;11.40;38.20;;;;;;5056859;28;20060;-69
2021/09/25 04:49:22;;;;;;;16.23;10.80;;;11.30;38.20;;;;;;5054119;28;20053;-70
2021/09/25 04:51:50;;;;;;;15.38;11.13;;;11.30;38.20;;;;;;5062468;28;20048;-70
2021/09/25 04:54:21;;;;;;;15.60;10.75;;;11.20;38.10;;;;;;5061758;28;20408;-71
2021/09/25 04:56:49;;;;;;;15.35;11.15;;;11.20;39.00;;;;;;5058680;28;20492;-70
2021/09/25 04:59:17;;;;;;;15.05;10.75;;;11.20;39.50;;;;;;5062882;28;20133;-70
2021/09/25 05:01:52;;;;;;;15.05;10.63;;;11.20;39.50;;;;;;5060113;28;20178;-70
2021/09/25 05:04:21;;;;;;;13.88;10.55;;;11.20;39.10;;;;;;5055561;28;20041;-70
2021/09/25 05:06:54;;;;;;;16.00;10.77;;;11.20;38.40;;;;;;5059500;28;20045;-70
2021/09/25 05:09:23;;;;;;;14.15;10.55;;;11.20;38.10;;;;;;5065038;28;20058;-70
2021/09/25 05:11:53;;;;;;;16.08;10.95;;;11.20;38.10;;;;;;5060957;28;20043;-71
2021/09/25 05:14:23;;;;;;;16.23;11.15;;;11.10;38.00;;;;;;5046057;28;20569;-70
2021/09/25 05:16:53;;;;;;;16.45;10.20;;;11.10;38.10;;;;;;5065726;28;20471;-70
2021/09/25 05:19:24;;;;;;;14.63;10.32;;;11.20;38.10;;;;;;5057080;28;20072;-70
2021/09/25 05:21:52;;;;;;;14.95;10.02;;;11.10;37.90;;;;;;5064611;28;20110;-70
2021/09/25 05:24:20;;;;;;;14.52;10.48;;;11.10;38.00;;;;;;5068666;28;20045;-70
2021/09/25 05:26:55;;;;;;;14.20;9.52;;;11.10;37.90;;;;;;5061040;28;20044;-71
2021/09/25 05:29:24;;;;;;;17.15;10.57;;;11.10;38.00;;;;;;5063991;28;20057;-70
2021/09/25 05:31:58;;;;;;;14.68;9.88;;;11.10;38.00;;;;;;5065952;28;20087;-70
2021/09/25 05:34:26;;;;;;;14.65;9.90;;;11.10;38.00;;;;;;5060435;28;20043;-71
2021/09/25 05:36:57;;;;;;;11.77;9.40;;;11.20;38.10;;;;;;5062929;28;20054;-70
2021/09/25 05:39:25;;;;;;;14.57;9.95;;;11.30;37.50;;;;;;5047753;28;20071;-70
2021/09/25 05:41:54;;;;;;;13.52;9.98;;;11.30;36.50;;;;;;5057769;28;20103;-70
2021/09/25 05:44:22;;;;;;;17.20;10.57;;;11.30;36.60;;;;;;5064404;28;20152;-69
2021/09/25 05:46:52;;;;;;;13.45;9.93;;;11.40;36.50;;;;;;5067182;28;20149;-70
2021/09/25 05:49:24;;;;;;;12.93;9.93;;;11.40;35.40;;;;;;5022825;28;20060;-69
2021/09/25 05:51:52;;;;;;;13.82;9.80;;;11.50;34.20;;;;;;5060288;28;20542;-69
2021/09/25 05:54:23;;;;;;;14.77;9.95;;;11.60;34.20;;;;;;5047183;28;20127;-70
2021/09/25 05:56:54;;;;;;;13.30;9.45;;;11.60;33.30;;;;;;5065977;28;20423;-70
2021/09/25 05:59:26;;;;;;;14.63;9.77;;;11.60;33.10;;;;;;5057692;28;20059;-69
2021/09/25 06:01:58;;;;;;;14.15;9.55;;;11.70;32.30;;;;;;5061777;28;20045;-69
2021/09/25 06:04:29;;;;;;;13.82;9.30;;;11.70;32.00;;;;;;5065194;28;20048;-71
2021/09/25 06:06:57;;;;;;;12.50;9.85;;;11.70;31.60;;;;;;5064228;28;20124;-70
2021/09/25 06:09:26;;;;;;;13.25;9.20;;;11.70;31.70;;;;;;5041451;28;20044;-70
2021/09/25 06:11:54;;;;;;;16.15;9.07;;;11.80;31.50;;;;;;5063956;28;20190;-70
2021/09/25 06:14:23;;;;;;;14.48;9.55;;;11.90;30.10;;;;;;5045807;28;20060;-70
2021/09/25 06:16:52;;;;;;;11.80;9.20;;;12.10;29.50;;;;;;5043546;28;20048;-70
2021/09/25 06:19:21;;;;;;;12.77;9.20;;;12.00;29.50;;;;;;5029764;28;20048;-71
2021/09/25 06:21:51;;;;;;;13.50;8.52;;;12.10;29.60;;;;;;5058313;28;20519;-70
2021/09/25 06:24:23;;;;;;;14.77;8.55;;;12.20;29.10;;;;;;5058334;28;20036;-70
2021/09/25 06:26:54;;;;;;;13.45;9.45;;;12.20;28.60;;;;;;5064112;28;20067;-70
2021/09/25 06:29:26;;;;;;;14.57;8.93;;;12.30;27.60;;;;;;5059058;28;20400;-70
2021/09/25 06:31:54;;;;;;;14.07;9.38;;;12.30;26.60;;;;;;5039366;28;20072;-69
2021/09/25 06:34:24;;;;;;;12.50;8.68;;;12.20;26.00;;;;;;5065790;28;20045;-70
2021/09/25 06:36:54;;;;;;;11.93;9.02;;;12.40;26.00;;;;;;5061686;28;20071;-70
2021/09/25 06:39:24;;;;;;;12.73;9.05;;;12.60;25.20;;;;;;5057936;28;20075;-69
2021/09/25 06:41:54;;;;;;;12.68;8.40;;;12.60;23.80;;;;;;5066311;28;20055;-70
2021/09/25 06:44:23;;;;;;;14.32;8.77;;;12.60;24.20;;;;;;5059560;28;20044;-69
2021/09/25 06:46:51;;;;;;;13.20;8.80;;;12.70;23.90;;;;;;5062793;28;20140;-68
2021/09/25 06:49:19;;;;;;;10.95;8.50;;;12.70;23.70;;;;;;5059687;28;20055;-70
2021/09/25 06:51:47;;;;;;;12.95;9.35;;;12.70;22.80;;;;;;5056001;28;20072;-70
2021/09/25 06:54:16;;;;;;;16.30;8.45;;;12.90;22.20;;;;;;5066937;28;20127;-70
2021/09/25 06:56:45;;;;;;;15.20;9.57;;;13.00;21.10;;;;;;5045785;28;20090;-70
2021/09/25 06:59:14;;;;;;;12.15;8.80;;;13.10;20.40;;;;;;5057308;28;20056;-70
2021/09/25 07:01:42;;;;;;;13.30;8.88;;;13.20;19.80;;;;;;5059460;28;20137;-70
2021/09/25 07:04:11;;;;;;;10.93;8.07;;;13.30;19.80;;;;;;5062210;28;20045;-70
2021/09/25 07:06:40;;;;;;;12.93;8.95;;;13.30;18.80;;;;;;5062406;28;20087;-69
2021/09/25 07:09:09;;;;;;;14.30;8.73;;;13.50;18.80;;;;;;5061307;28;20052;-70
2021/09/25 07:11:38;;;;;;;14.30;8.23;;;13.40;17.60;;;;;;5055967;28;20468;-71
2021/09/25 07:14:06;;;;;;;12.88;8.63;;;13.50;17.40;;;;;;5060417;28;20047;-71
2021/09/25 07:16:38;;;;;;;13.05;8.90;;;13.60;17.50;;;;;;5046406;28;20522;-71
2021/09/25 07:19:06;;;;;;;10.75;8.07;;;13.80;17.00;;;;;;5057730;28;20051;-71
2021/09/25 07:21:34;;;;;;;13.85;8.60;;;13.80;16.60;;;;;;5052283;28;20052;-71
2021/09/25 07:24:06;;;;;;;11.52;8.73;;;13.90;15.70;;;;;;5065793;28;20413;-71
2021/09/25 07:26:34;;;;;;;11.68;8.88;;;13.90;15.70;;;;;;5060326;28;20055;-71
2021/09/25 07:29:03;;;;;;;12.68;8.65;;;14.10;14.90;;;;;;5054702;28;20090;-71
2021/09/25 07:31:36;;;;;;;;;;;14.20;14.90;;;;;;5058321;28;20446;-71
2021/09/25 07:34:07;;;;;;;14.90;9.23;;;14.40;13.90;;;;;;5065169;28;19921;-71
2021/09/25 07:36:38;;;;;;;12.35;8.25;;;14.30;13.80;;;;;;5044187;28;20037;-69
2021/09/25 07:39:06;;;;;;;13.35;9.35;;;14.50;13.20;;;;;;5066002;28;20056;-70
2021/09/25 07:41:37;;;;;;;12.32;9.25;;;14.70;13.10;;;;;;5041731;28;20478;-71
2021/09/25 07:44:07;;;;;;;13.32;9.43;;;14.70;12.00;;;;;;5057530;28;20428;-71
2021/09/25 07:46:38;;;;;;;12.73;8.98;;;14.90;11.50;;;;;;5057895;28;20072;-71
2021/09/25 07:49:26;;;;;;;11.02;8.77;;;15.20;11.00;;;;;;5062035;28;20153;-69
2021/09/25 07:51:58;;;;;;;10.20;8.63;;;15.00;10.50;;;;;;5062604;28;20086;-70
2021/09/25 07:54:26;;;;;;;13.90;9.98;;;15.20;9.70;;;;;;5004770;28;20265;-70
2021/09/25 07:56:55;;;;;;;11.23;8.77;;;15.30;9.30;;;;;;5057180;28;20079;-71
2021/09/25 07:59:29;;;;;;;14.93;8.48;;;15.40;9.10;;;;;;5058411;28;20080;-70
2021/09/25 08:02:00;;;;;;;10.20;7.80;;;15.50;8.70;;;;;;5054308;28;20044;-70
2021/09/25 08:04:29;;;;;;;11.18;9.02;;;15.70;7.90;;;;;;5061750;28;20048;-70
2021/09/25 08:06:57;;;;;;;12.68;8.35;;;15.70;6.90;;;;;;5059804;28;20044;-71
2021/09/25 08:09:25;;;;;;;14.80;8.93;;;15.90;6.80;;;;;;5052003;28;20143;-70
2021/09/25 08:11:53;;;;;;;10.95;8.13;;;16.00;6.20;;;;;;5057858;28;20045;-70
2021/09/25 08:14:23;;;;;;;10.77;8.43;;;16.20;6.10;;;;;;5062895;28;20059;-69
2021/09/25 08:16:52;;;;;;;10.10;8.25;;;16.10;5.00;;;;;;5061891;28;20109;-70
2021/09/25 08:19:24;;;;;;;9.98;7.38;;;16.20;4.50;;;;;;5058568;28;20588;-71
2021/09/25 08:21:56;;;;;;;14.65;8.32;;;16.40;3.60;;;;;;5056389;28;20119;-70
2021/09/25 08:24:24;;;;;;;13.32;7.93;;;16.50;3.30;;;;;;5059102;28;20147;-69
2021/09/25 08:26:52;;;;;;;14.60;7.72;;;16.70;2.10;;;;;;5056368;28;20098;-70
2021/09/25 08:29:21;;;;;;;10.82;7.47;;;16.90;2.00;;;;;;5056787;28;20138;-71
2021/09/25 08:31:49;;;;;;;10.18;7.88;;;17.10;1.30;;;;;;5058865;28;20052;-69
2021/09/25 08:34:20;;;;;;;10.05;6.95;;;17.20;1.00;;;;;;5055630;28;20076;-70
2021/09/25 08:36:53;;;;;;;9.45;6.53;;;17.00;1.00;;;;;;5055984;28;20075;-70
2021/09/25 08:39:21;;;;;;;9.90;6.80;;;17.30;1.00;;;;;;5053540;28;20083;-69
2021/09/25 08:41:51;;;;;;;10.32;6.40;;;17.40;1.00;;;;;;5057303;28;20094;-70
2021/09/25 08:44:22;;;;;;;11.02;7.07;;;17.60;1.00;;;;;;5056054;28;20044;-70
2021/09/25 08:46:51;;;;;;;9.35;6.50;;;17.80;1.00;;;;;;5047517;28;20072;-70
2021/09/25 08:49:21;;;;;;;7.28;6.22;;;17.80;1.00;;;;;;5059219;28;20376;-70
2021/09/25 08:51:50;;;;;;;8.25;6.55;;;17.90;1.00;;;;;;5060617;28;20033;-69
2021/09/25 08:54:18;;;;;;;7.82;6.05;;;18.10;1.00;;;;;;5062541;28;20302;-70
2021/09/25 08:56:46;;;;;;;9.63;6.40;;;18.20;1.00;;;;;;5063594;28;20048;-70
2021/09/25 08:59:16;;;;;;;8.52;6.00;;;18.40;1.00;;;;;;5060154;28;20147;-70
2021/09/25 09:01:48;;;;;;;10.50;6.25;;;18.50;1.00;;;;;;5060819;28;20574;-70
2021/09/25 09:04:18;;;;;;;10.77;5.93;;;18.60;1.00;;;;;;5059478;28;20057;-70
2021/09/25 09:06:50;;;;;;;9.05;5.65;;;18.50;1.00;;;;;;5064922;28;20075;-70
2021/09/25 09:09:24;;;;;;;7.45;5.80;;;18.40;1.00;;;;;;5063987;28;20120;-71
2021/09/25 09:11:58;;;;;;;6.22;5.57;;;18.80;1.00;;;;;;5041154;28;20044;-70
2021/09/25 09:14:26;;;;;;;6.20;5.47;;;18.90;1.00;;;;;;5060556;28;20118;-70
2021/09/25 09:16:58;;;;;;;8.00;5.50;;;18.90;1.00;;;;;;5061554;28;20049;-71
2021/09/25 09:19:34;;;;;;;7.10;5.65;;;19.00;1.00;;;;;;5058559;28;20049;-70
2021/09/25 09:22:10;;;;;;;7.63;5.53;;;19.30;1.00;;;;;;5061757;28;20049;-71
2021/09/25 09:24:43;;;;;;;6.15;5.55;;;19.30;1.00;;;;;;5041762;28;20060;-71
2021/09/25 09:27:14;;;;;;;6.28;5.25;;;19.40;1.00;;;;;;5066782;28;20072;-70
2021/09/25 09:29:43;;;;;;;6.47;5.55;;;19.70;1.00;;;;;;5039309;28;20048;-69
2021/09/25 09:32:14;;;;;;;6.95;4.80;;;19.70;1.00;;;;;;5056224;28;20041;-71
2021/09/25 09:34:44;;;;;;;9.77;5.97;;;19.90;1.00;;;;;;5059914;28;20503;-71
2021/09/25 09:37:19;;;;;;;7.07;5.53;;;20.10;1.00;;;;;;5059245;28;20052;-72
2021/09/25 09:39:59;;;;;;;7.65;5.45;;;20.10;1.00;;;;;;5056420;28;20044;-70
2021/09/25 09:42:33;;;;;;;10.07;5.65;;;20.10;1.00;;;;;;5045224;28;20049;-70
2021/09/25 09:45:26;;;;;;;6.72;5.32;;;20.10;1.00;;;;;;5062045;28;20045;-70
2021/09/25 09:47:54;;;;;;;7.25;5.35;;;20.40;1.00;;;;;;5057611;28;20109;-70
2021/09/25 09:50:22;;;;;;;8.63;6.05;;;20.50;1.00;;;;;;5062761;28;20045;-70
2021/09/25 09:52:53;;;;;;;8.02;5.75;;;20.60;1.00;;;;;;5063209;28;20516;-70
2021/09/25 09:55:22;;;;;;;8.13;5.50;;;20.50;1.00;;;;;;5057744;28;20127;-71
2021/09/25 09:58:00;;;;;;;5.90;4.85;;;20.60;1.00;;;;;;5060306;28;20071;-72
2021/09/25 10:00:28;;;;;;;9.15;5.38;;;20.50;1.00;;;;;;5055682;28;20044;-71
2021/09/25 10:02:57;;;;;;;6.55;5.03;;;20.70;1.00;;;;;;5059627;28;20070;-70
2021/09/25 10:05:29;;;;;;;7.78;5.15;;;20.80;1.00;;;;;;5062786;28;20043;-71
2021/09/25 10:08:02;;;;;;;5.78;4.82;;;20.90;1.00;;;;;;5038983;28;20127;-70
2021/09/25 10:10:31;;;;;;;7.10;5.20;;;21.20;1.00;;;;;;5056991;28;20083;-71
2021/09/25 10:13:00;;;;;;;7.38;5.20;;;21.20;1.00;;;;;;5057598;28;20115;-71
2021/09/25 10:15:28;;;;;;;7.57;5.78;;;21.30;1.00;;;;;;5057694;28;20068;-71
2021/09/25 10:18:02;;;;;;;6.80;4.47;;;21.10;1.00;;;;;;5057443;28;20049;-71
2021/09/25 10:20:31;;;;;;;11.25;6.53;;;21.20;1.00;;;;;;5055266;28;20125;-70
2021/09/25 10:23:07;;;;;;;7.68;5.75;;;21.40;1.00;;;;;;5057876;28;20045;-71
2021/09/25 10:25:36;;;;;;;8.38;5.03;;;21.40;1.00;;;;;;5055882;28;20444;-70
2021/09/25 10:28:23;;;;;;;6.68;5.38;;;21.50;1.00;;;;;;5060313;28;20102;-71
2021/09/25 10:30:52;;;;;;;8.30;5.20;;;21.50;1.00;;;;;;5052592;28;20103;-70
2021/09/25 10:33:24;;;;;;;5.25;4.75;;;21.40;1.00;;;;;;5057150;28;20037;-72
2021/09/25 10:35:56;;;;;;;5.72;4.78;;;21.50;1.00;;;;;;5057061;28;20041;-70
2021/09/25 10:38:37;;;;;;;7.28;4.63;;;21.90;1.00;;;;;;5058327;28;20113;-70
2021/09/25 10:41:43;;;;;;;6.65;4.65;;;22.00;1.00;;;;;;5054909;28;20044;-70
2021/09/25 10:44:24;;;;;;;6.55;4.97;;;22.00;1.00;;;;;;5059383;28;20052;-71
2021/09/25 10:46:52;;;;;;;6.93;4.43;;;22.00;1.00;;;;;;5060097;28;20049;-70
2021/09/25 10:49:21;;;;;;;6.28;4.60;;;22.20;1.00;;;;;;5051957;28;20116;-70
2021/09/25 10:51:53;;;;;;;7.55;5.60;;;22.00;1.00;;;;;;5052081;28;20114;-70
2021/09/25 10:54:26;;;;;;;7.25;5.32;;;22.00;1.00;;;;;;5059593;28;20048;-71
2021/09/25 10:56:58;;;;;;;6.50;4.90;;;21.90;1.00;;;;;;5058685;28;20124;-71
2021/09/25 10:59:27;;;;;;;6.30;5.63;;;22.40;1.00;;;;;;5014757;28;20194;-70
2021/09/25 11:01:55;;;;;;;7.25;4.65;;;22.50;1.00;;;;;;5058004;28;20163;-71
2021/09/25 11:04:24;;;;;;;5.93;4.80;;;22.70;1.00;;;;;;5055046;28;20059;-70
2021/09/25 11:06:55;;;;;;;6.22;5.10;;;22.70;1.00;;;;;;5056924;28;20447;-71
2021/09/25 11:09:30;;;;;;;5.93;5.07;;;22.60;1.00;;;;;;5051456;28;20793;-70
2021/09/25 11:12:08;;;;;;;8.15;4.70;;;22.70;1.00;;;;;;5058702;28;20037;-72
2021/09/25 11:14:42;;;;;;;5.57;4.40;;;22.40;1.00;;;;;;5056818;28;20040;-70
2021/09/25 11:17:25;;;;;;;5.30;4.75;;;22.60;1.00;;;;;;5055077;28;20471;-70
2021/09/25 11:19:58;;;;;;;6.30;4.85;;;22.90;1.00;;;;;;5053165;28;20041;-70
2021/09/25 11:22:30;;;;;;;8.68;5.22;;;22.80;1.00;;;;;;5063260;28;20048;-71
2021/09/25 11:25:02;;;;;;;6.82;4.75;;;22.60;1.00;;;;;;5056213;28;20492;-70
2021/09/25 11:27:36;;;;;;;5.03;4.53;;;22.50;1.00;;;;;;5056569;28;20132;-70
2021/09/25 11:30:12;;;;;;;6.35;5.00;;;22.60;1.00;;;;;;5047888;28;20053;-69
2021/09/25 11:32:46;;;;;;;6.85;5.28;;;22.80;1.00;;;;;;5034784;28;20111;-70
2021/09/25 11:35:17;;;;;;;7.43;4.85;;;22.90;1.00;;;;;;5053077;28;20048;-71
2021/09/25 11:37:51;;;;;;;6.75;4.68;;;23.00;1.00;;;;;;5058387;28;20051;-71
2021/09/25 11:40:23;;;;;;;5.78;4.78;;;23.00;1.00;;;;;;5052505;28;20052;-71
2021/09/25 11:42:59;;;;;;;;;;;23.20;1.00;;;;;;5054265;28;20045;-71
2021/09/25 11:45:34;;;;;;;6.47;4.78;;;23.10;1.00;;;;;;5052901;28;19968;-70
2021/09/25 11:48:08;;;;;;;5.22;4.47;;;23.30;1.00;;;;;;5054089;28;20095;-70
2021/09/25 11:50:40;;;;;;;9.18;5.18;;;23.40;1.00;;;;;;5049603;28;20091;-69
2021/09/25 11:53:10;;;;;;;7.50;4.80;;;23.20;1.00;;;;;;5053676;28;20045;-70
2021/09/25 11:55:44;;;;;;;7.18;4.90;;;23.20;1.00;;;;;;5054760;28;20041;-70
2021/09/25 11:58:14;;;;;;;5.07;4.55;;;23.50;1.00;;;;;;5055291;28;20071;-71
2021/09/25 12:00:46;;;;;;;6.07;5.20;;;23.50;1.00;;;;;;5056163;28;20045;-70
2021/09/25 12:03:18;;;;;;;6.22;4.43;;;23.50;1.00;;;;;;5061040;28;20118;-72
2021/09/25 12:05:51;;;;;;;5.68;4.70;;;23.50;1.00;;;;;;5055073;28;20056;-71
2021/09/25 12:08:22;;;;;;;9.65;4.43;;;23.70;1.00;;;;;;5063025;28;20159;-70
2021/09/25 12:10:57;;;;;;;7.95;4.65;;;23.70;1.00;;;;;;5053313;28;20125;-71
2021/09/25 12:13:30;;;;;;;6.30;4.97;;;23.70;1.00;;;;;;5054769;28;20120;-71
2021/09/25 12:16:08;;;;;;;4.63;4.13;;;23.50;1.00;;;;;;5060285;28;20101;-70
2021/09/25 12:18:40;;;;;;;5.10;4.60;;;23.60;1.00;;;;;;5063775;28;20055;-71
2021/09/25 12:21:11;;;;;;;6.97;4.70;;;23.70;1.00;;;;;;5051956;28;20418;-71
2021/09/25 12:23:40;;;;;;;6.80;4.82;;;23.40;1.00;;;;;;5061405;28;20040;-70
2021/09/25 12:26:12;;;;;;;6.07;4.45;;;23.50;1.00;;;;;;5062467;28;20144;-70
2021/09/25 12:28:47;;;;;;;6.10;5.00;;;23.70;1.00;;;;;;5058185;28;20044;-71
2021/09/25 12:31:18;;;;;;;5.93;4.65;;;23.80;1.00;;;;;;5053044;28;20068;-70
2021/09/25 12:33:55;;;;;;;5.53;4.47;;;23.80;1.00;;;;;;5064939;28;20120;-70
2021/09/25 12:36:26;;;;;;;5.63;4.38;;;23.70;1.00;;;;;;5061504;28;20824;-71
2021/09/25 12:39:04;;;;;;;6.97;4.65;;;23.80;1.00;;;;;;5053844;28;20048;-70
2021/09/25 12:41:40;;;;;;;6.03;4.68;;;23.90;1.00;;;;;;5059919;28;20095;-70
2021/09/25 12:44:10;;;;;;;6.18;4.82;;;23.90;1.00;;;;;;5056771;28;20098;-70
2021/09/25 12:46:42;;;;;;;5.68;4.13;;;23.90;1.00;;;;;;5045818;28;20415;-69
2021/09/25 12:49:25;;;;;;;5.97;4.20;;;24.00;1.00;;;;;;5059163;28;20693;-70
2021/09/25 12:52:01;;;;;;;5.22;4.72;;;24.10;1.00;;;;;;5043207;28;20041;-70
2021/09/25 12:54:32;;;;;;;5.95;4.50;;;24.30;1.00;;;;;;5056857;28;20411;-70
2021/09/25 12:57:03;;;;;;;4.88;4.13;;;24.20;1.00;;;;;;5060791;28;20080;-71
2021/09/25 12:59:34;;;;;;;5.15;4.53;;;24.00;1.00;;;;;;5055700;28;20138;-70